Time;durP1;ratioP1;P1;durP2;ratioP2;P2;SDS_P1;SDS_P2;PMS_P1;PMS_P2;Temp;Humidity;BMP_temperature;BMP_pressure;BME280_temperature;BME280_humidity;BME280_pressure;Samples;Min_cycle;Max_cycle;Signal;HPM_P1;HPM_P2
2021/04/09 00:01:41;;;;;;;25.90;11.60;;;;;;;;;;5015589;28;20037;-59
2021/04/09 00:04:07;;;;;;;35.03;12.45;;;;;;;;;;5015459;28;20042;-59
2021/04/09 00:06:32;;;;;;;20.80;10.50;;;;;;;;;;5014732;28;20037;-59
2021/04/09 00:08:57;;;;;;;28.67;11.50;;;;;;;;;;5015258;28;20447;-60
2021/04/09 00:11:23;;;;;;;25.83;11.57;;;;;;;;;;5016468;28;20061;-59
2021/04/09 00:13:48;;;;;;;19.73;10.67;;;;;;;;;;5016027;28;20040;-59
2021/04/09 00:16:13;;;;;;;19.37;11.23;;;;;;;;;;5015414;28;20472;-58
2021/04/09 00:18:39;;;;;;;20.43;11.13;;;;;;;;;;5015835;28;20030;-58
2021/04/09 00:21:04;;;;;;;29.73;12.80;;;;;;;;;;5015452;28;20111;-60
2021/04/09 00:23:30;;;;;;;26.00;12.47;;;;;;;;;;5013752;28;20045;-59
2021/04/09 00:25:56;;;;;;;23.85;11.93;;;;;;;;;;5014141;28;20386;-60
2021/04/09 00:28:21;;;;;;;25.17;11.03;;;;;;;;;;5014060;28;20026;-59
2021/04/09 00:30:46;;;;;;;25.50;11.53;;;;;;;;;;5014474;28;20041;-59
2021/04/09 00:33:12;;;;;;;26.53;12.13;;;;;;;;;;5014143;28;20343;-59
2021/04/09 00:35:38;;;;;;;23.45;13.43;;;;;;;;;;5013666;28;20053;-59
2021/04/09 00:38:03;;;;;;;22.45;12.38;;;;;;;;;;5014679;28;20371;-60
2021/04/09 00:40:29;;;;;;;30.47;14.53;;;;;;;;;;5013499;28;20096;-59
2021/04/09 00:42:54;;;;;;;34.27;15.37;;;;;;;;;;5012575;28;20088;-59
2021/04/09 00:45:20;;;;;;;30.63;14.87;;;;;;;;;;5013392;28;20412;-63
2021/04/09 00:47:46;;;;;;;23.77;11.23;;;;;;;;;;5012436;28;20030;-60
2021/04/09 00:50:12;;;;;;;23.27;11.90;;;;;;;;;;5012540;28;20311;-61
2021/04/09 00:52:38;;;;;;;;;;;;;;;;;;5013833;28;20026;-60
2021/04/09 00:55:04;;;;;;;24.93;11.60;;;;;;;;;;5012569;28;19916;-60
2021/04/09 00:57:29;;;;;;;;;;;;;;;;;;5011618;28;20117;-59
2021/04/09 00:59:55;;;;;;;25.80;12.97;;;;;;;;;;5012693;28;20079;-60
2021/04/09 01:02:21;;;;;;;25.17;11.93;;;;;;;;;;4995334;28;20048;-58
2021/04/09 01:04:47;;;;;;;22.23;12.23;;;;;;;;;;5013655;28;20100;-60
2021/04/09 01:07:13;;;;;;;31.80;13.23;;;;;;;;;;5013649;28;20029;-59
2021/04/09 01:09:38;;;;;;;30.63;12.47;;;;;;;;;;5011471;28;20381;-60
2021/04/09 01:12:04;;;;;;;25.47;13.20;;;;;;;;;;5013242;28;20022;-59
2021/04/09 01:14:30;;;;;;;28.83;13.18;;;;;;;;;;5012575;28;20030;-59
2021/04/09 01:17:07;;;;;;;24.88;12.73;;;;;;;;;;5012848;28;20040;-59
2021/04/09 01:19:32;;;;;;;;;;;;;;;;;;5012686;28;20124;-59
2021/04/09 01:22:01;;;;;;;25.07;12.70;;;;;;;;;;5012613;28;19996;-58
2021/04/09 01:24:26;;;;;;;35.72;14.48;;;;;;;;;;5012200;28;20034;-58
2021/04/09 01:26:54;;;;;;;29.97;13.13;;;;;;;;;;5012627;28;20030;-59
2021/04/09 01:29:20;;;;;;;27.88;12.73;;;;;;;;;;5010896;28;20418;-59
2021/04/09 01:31:47;;;;;;;22.83;12.53;;;;;;;;;;5012845;28;20113;-59
2021/04/09 01:34:13;;;;;;;28.33;12.18;;;;;;;;;;5012672;28;20030;-59
2021/04/09 01:36:40;;;;;;;28.45;12.93;;;;;;;;;;5012028;28;20101;-59
2021/04/09 01:39:19;;;;;;;22.02;11.35;;;;;;;;;;5012976;28;20100;-59
2021/04/09 01:41:46;;;;;;;22.58;11.52;;;;;;;;;;5013327;28;20079;-60
2021/04/09 01:44:12;;;;;;;26.25;11.10;;;;;;;;;;5008450;28;20034;-58
2021/04/09 01:46:40;;;;;;;26.23;12.25;;;;;;;;;;4993189;28;20380;-59
2021/04/09 01:49:06;;;;;;;24.92;11.88;;;;;;;;;;5007544;28;20439;-58
2021/04/09 01:51:32;;;;;;;24.65;13.00;;;;;;;;;;5011884;28;20121;-58
2021/04/09 01:53:58;;;;;;;27.48;12.68;;;;;;;;;;5001496;28;20124;-60
2021/04/09 01:56:25;;;;;;;23.92;11.93;;;;;;;;;;4992550;28;20090;-59
2021/04/09 01:58:50;;;;;;;;;;;;;;;;;;4993445;28;20161;-59
2021/04/09 02:01:17;;;;;;;24.50;11.30;;;;;;;;;;4994149;28;20366;-61
2021/04/09 02:03:44;;;;;;;20.77;10.82;;;;;;;;;;5008201;28;20050;-60
2021/04/09 02:06:12;;;;;;;19.73;10.80;;;;;;;;;;4993788;28;20459;-60
2021/04/09 02:08:38;;;;;;;21.67;10.63;;;;;;;;;;4993712;28;20041;-59
2021/04/09 02:11:04;;;;;;;26.80;11.97;;;;;;;;;;4993434;28;20042;-59
2021/04/09 02:13:30;;;;;;;22.75;10.50;;;;;;;;;;4992210;28;20026;-58
2021/04/09 02:15:56;;;;;;;21.25;11.18;;;;;;;;;;4992350;28;20030;-60
2021/04/09 02:18:23;;;;;;;22.85;10.32;;;;;;;;;;4992543;28;20042;-59
2021/04/09 02:20:49;;;;;;;22.48;10.75;;;;;;;;;;5008443;28;20129;-59
2021/04/09 02:23:14;;;;;;;21.65;9.98;;;;;;;;;;4991518;28;20109;-59
2021/04/09 02:25:40;;;;;;;21.83;11.73;;;;;;;;;;4991810;28;20033;-59
2021/04/09 02:28:06;;;;;;;27.43;10.83;;;;;;;;;;4992101;28;20088;-59
2021/04/09 02:30:31;;;;;;;25.60;10.82;;;;;;;;;;4991748;28;20061;-59
2021/04/09 02:32:56;;;;;;;25.00;11.00;;;;;;;;;;4992100;28;20439;-59
2021/04/09 02:35:22;;;;;;;26.33;11.67;;;;;;;;;;4992255;28;20030;-59
2021/04/09 02:37:48;;;;;;;23.93;11.20;;;;;;;;;;4990253;28;20084;-59
2021/04/09 02:40:15;;;;;;;26.65;12.05;;;;;;;;;;4992045;28;20050;-59
2021/04/09 02:42:43;;;;;;;25.33;10.95;;;;;;;;;;4990300;28;20029;-59
2021/04/09 02:45:09;;;;;;;29.58;11.52;;;;;;;;;;4990769;28;20030;-59
2021/04/09 02:47:36;;;;;;;27.27;12.20;;;;;;;;;;4991478;28;20118;-59
2021/04/09 02:50:10;;;;;;;22.00;10.90;;;;;;;;;;4992177;28;20499;-59
2021/04/09 02:52:37;;;;;;;23.75;11.20;;;;;;;;;;4990226;28;20064;-59
2021/04/09 02:55:13;;;;;;;25.73;11.82;;;;;;;;;;4991920;28;20030;-59
2021/04/09 02:57:39;;;;;;;31.35;11.65;;;;;;;;;;4991485;28;20113;-58
2021/04/09 03:00:06;;;;;;;19.17;10.57;;;;;;;;;;4990696;28;20121;-59
2021/04/09 03:02:32;;;;;;;30.20;11.98;;;;;;;;;;4991091;28;20471;-58
2021/04/09 03:04:57;;;;;;;23.10;10.77;;;;;;;;;;4990522;28;20026;-59
2021/04/09 03:07:23;;;;;;;23.30;11.50;;;;;;;;;;5010829;28;20045;-59
2021/04/09 03:09:48;;;;;;;30.30;12.50;;;;;;;;;;5010569;28;20318;-59
2021/04/09 03:12:18;;;;;;;23.73;11.67;;;;;;;;;;5011202;28;20329;-60
2021/04/09 03:14:44;;;;;;;24.88;11.70;;;;;;;;;;5011312;28;20070;-59
2021/04/09 03:17:33;;;;;;;21.17;11.02;;;;;;;;;;5011980;28;20046;-59
2021/04/09 03:19:58;;;;;;;32.65;12.43;;;;;;;;;;5003318;28;20086;-62
2021/04/09 03:22:23;;;;;;;21.93;11.77;;;;;;;;;;5012443;28;20426;-59
2021/04/09 03:24:49;;;;;;;31.57;12.37;;;;;;;;;;5014220;28;20353;-59
2021/04/09 03:27:15;;;;;;;27.37;12.53;;;;;;;;;;5015305;28;20068;-59
2021/04/09 03:29:41;;;;;;;26.27;13.15;;;;;;;;;;5014352;28;20478;-59
2021/04/09 03:32:06;;;;;;;25.13;11.48;;;;;;;;;;5013431;28;20057;-59
2021/04/09 03:34:32;;;;;;;15.80;8.53;;;;;;;;;;5014671;28;20026;-58
2021/04/09 03:36:57;;;;;;;23.40;11.63;;;;;;;;;;5015028;28;20138;-60
2021/04/09 03:39:22;;;;;;;21.07;10.90;;;;;;;;;;5014990;28;20467;-59
2021/04/09 03:41:48;;;;;;;26.00;11.57;;;;;;;;;;5013095;28;20037;-59
2021/04/09 03:44:13;;;;;;;26.60;11.33;;;;;;;;;;5013212;28;20057;-59
2021/04/09 03:46:38;;;;;;;28.73;11.50;;;;;;;;;;5013872;28;20041;-59
2021/04/09 03:49:04;;;;;;;26.07;12.57;;;;;;;;;;5014651;28;20076;-59
2021/04/09 03:51:30;;;;;;;28.00;11.23;;;;;;;;;;5013358;28;20549;-59
2021/04/09 03:53:56;;;;;;;;;;;;;;;;;;5014398;28;20041;-59
2021/04/09 03:56:21;;;;;;;22.17;11.63;;;;;;;;;;5014382;28;19909;-59
2021/04/09 03:58:46;;;;;;;24.37;11.57;;;;;;;;;;5014161;28;20113;-59
2021/04/09 04:01:12;;;;;;;23.70;11.30;;;;;;;;;;5013275;28;20026;-59
2021/04/09 04:03:37;;;;;;;30.43;11.33;;;;;;;;;;5013584;28;20085;-59
2021/04/09 04:06:03;;;;;;;25.20;11.30;;;;;;;;;;5014836;28;20427;-59
2021/04/09 04:08:28;;;;;;;24.90;11.63;;;;;;;;;;5014457;28;20041;-60
2021/04/09 04:10:53;;;;;;;26.73;11.63;;;;;;;;;;5013677;28;20037;-60
2021/04/09 04:13:19;;;;;;;22.83;12.00;;;;;;;;;;5014605;28;20030;-61
2021/04/09 04:15:44;;;;;;;25.70;12.37;;;;;;;;;;5013824;28;20026;-60
2021/04/09 04:18:09;;;;;;;22.73;11.40;;;;;;;;;;5014627;28;20041;-60
2021/04/09 04:20:35;;;;;;;22.07;11.37;;;;;;;;;;5014414;28;20038;-60
2021/04/09 04:23:00;;;;;;;21.13;10.47;;;;;;;;;;5013897;28;20082;-63
2021/04/09 04:25:25;;;;;;;30.80;11.20;;;;;;;;;;5014252;28;20196;-60
2021/04/09 04:27:51;;;;;;;24.07;9.73;;;;;;;;;;5013576;28;20374;-60
2021/04/09 04:30:16;;;;;;;26.27;12.30;;;;;;;;;;5021615;28;20478;-58
2021/04/09 04:32:41;;;;;;;24.87;10.90;;;;;;;;;;5033182;28;20108;-58
2021/04/09 04:35:07;;;;;;;30.83;11.50;;;;;;;;;;5030853;28;20061;-58
2021/04/09 04:37:33;;;;;;;24.27;11.38;;;;;;;;;;5024251;28;20026;-57
2021/04/09 04:39:58;;;;;;;29.27;12.70;;;;;;;;;;5020570;28;20042;-59
2021/04/09 04:42:23;;;;;;;24.73;10.80;;;;;;;;;;5004313;28;20029;-59
2021/04/09 04:44:49;;;;;;;24.40;11.17;;;;;;;;;;5023094;28;20026;-59
2021/04/09 04:47:14;;;;;;;23.57;11.20;;;;;;;;;;5024331;28;20038;-60
2021/04/09 04:49:39;;;;;;;26.83;11.87;;;;;;;;;;5031726;28;20033;-59
2021/04/09 04:52:05;;;;;;;26.07;11.23;;;;;;;;;;5020538;28;20029;-60
2021/04/09 04:54:30;;;;;;;23.20;11.47;;;;;;;;;;5012682;28;20049;-61
2021/04/09 04:56:56;;;;;;;21.03;11.30;;;;;;;;;;5012383;28;20026;-59
2021/04/09 04:59:21;;;;;;;21.40;11.50;;;;;;;;;;5012627;28;20061;-60
2021/04/09 05:01:46;;;;;;;19.47;10.87;;;;;;;;;;5011885;28;20034;-59
2021/04/09 05:04:12;;;;;;;24.37;10.97;;;;;;;;;;5013974;28;20054;-60
2021/04/09 05:06:37;;;;;;;24.40;10.93;;;;;;;;;;5013942;28;20057;-60
2021/04/09 05:09:02;;;;;;;22.00;8.50;;;;;;;;;;5011896;28;20133;-60
2021/04/09 05:11:28;;;;;;;21.93;10.63;;;;;;;;;;5013784;28;20048;-60
2021/04/09 05:13:53;;;;;;;20.43;11.00;;;;;;;;;;5013071;28;20038;-60
2021/04/09 05:16:19;;;;;;;28.83;11.03;;;;;;;;;;5014403;28;20030;-60
2021/04/09 05:18:44;;;;;;;23.30;10.90;;;;;;;;;;5014104;28;20133;-60
2021/04/09 05:21:10;;;;;;;23.20;11.33;;;;;;;;;;5014182;28;20046;-60
2021/04/09 05:23:35;;;;;;;25.95;10.85;;;;;;;;;;5014003;28;20100;-58
2021/04/09 05:26:01;;;;;;;27.57;10.63;;;;;;;;;;5013159;28;20349;-59
2021/04/09 05:28:26;;;;;;;28.67;11.37;;;;;;;;;;5014114;28;20033;-59
2021/04/09 05:30:51;;;;;;;25.70;10.37;;;;;;;;;;5013279;28;20103;-59
2021/04/09 05:33:17;;;;;;;24.50;10.53;;;;;;;;;;5013856;28;20078;-60
2021/04/09 05:35:42;;;;;;;22.77;9.67;;;;;;;;;;5012301;28;20156;-60
2021/04/09 05:38:08;;;;;;;19.37;10.77;;;;;;;;;;5013464;28;20053;-58
2021/04/09 05:40:33;;;;;;;22.53;10.37;;;;;;;;;;5013335;28;20046;-58
2021/04/09 05:42:59;;;;;;;27.40;11.97;;;;;;;;;;5012984;28;20030;-60
2021/04/09 05:45:25;;;;;;;19.30;10.65;;;;;;;;;;5012625;28;20034;-60
2021/04/09 05:47:51;;;;;;;20.35;9.57;;;;;;;;;;5012161;28;20029;-61
2021/04/09 05:50:16;;;;;;;24.37;11.27;;;;;;;;;;5014213;28;20045;-61
2021/04/09 05:52:42;;;;;;;28.87;11.87;;;;;;;;;;5011982;28;20422;-60
2021/04/09 05:55:08;;;;;;;21.47;11.80;;;;;;;;;;5012406;28;20061;-59
2021/04/09 05:57:34;;;;;;;22.02;11.75;;;;;;;;;;5013141;28;20373;-60
2021/04/09 05:59:59;;;;;;;19.13;10.18;;;;;;;;;;5012552;28;20038;-60
2021/04/09 06:02:25;;;;;;;28.23;10.83;;;;;;;;;;5011501;28;20046;-57
2021/04/09 06:04:50;;;;;;;23.33;10.33;;;;;;;;;;5011729;28;20632;-58
2021/04/09 06:07:16;;;;;;;19.37;9.30;;;;;;;;;;5012900;28;20419;-59
2021/04/09 06:09:41;;;;;;;19.40;10.63;;;;;;;;;;5011532;28;20026;-59
2021/04/09 06:12:06;;;;;;;22.17;9.97;;;;;;;;;;5011892;28;20129;-58
2021/04/09 06:14:32;;;;;;;22.60;10.23;;;;;;;;;;5011682;28;20045;-59
2021/04/09 06:16:58;;;;;;;17.77;9.50;;;;;;;;;;5011857;28;20038;-59
2021/04/09 06:19:23;;;;;;;21.38;10.32;;;;;;;;;;5012324;28;20109;-59
2021/04/09 06:21:49;;;;;;;21.97;11.07;;;;;;;;;;5011836;28;20108;-59
2021/04/09 06:24:14;;;;;;;22.10;10.20;;;;;;;;;;5012183;28;20159;-59
2021/04/09 06:26:39;;;;;;;18.10;10.27;;;;;;;;;;5010727;28;20104;-58
2021/04/09 06:29:05;;;;;;;21.80;9.80;;;;;;;;;;5009448;28;20037;-60
2021/04/09 06:31:30;;;;;;;20.20;9.77;;;;;;;;;;5011446;28;20034;-60
2021/04/09 06:33:56;;;;;;;25.23;9.53;;;;;;;;;;5011084;28;20042;-60
2021/04/09 06:36:22;;;;;;;21.13;9.37;;;;;;;;;;5011651;28;20514;-60
2021/04/09 06:38:47;;;;;;;20.42;10.82;;;;;;;;;;5010189;28;20021;-60
2021/04/09 06:41:12;;;;;;;16.30;9.50;;;;;;;;;;5010821;28;20343;-60
2021/04/09 06:43:38;;;;;;;21.30;8.73;;;;;;;;;;5011306;28;20030;-60
2021/04/09 06:46:04;;;;;;;18.48;9.50;;;;;;;;;;5010351;28;20356;-59
2021/04/09 06:48:29;;;;;;;17.13;8.55;;;;;;;;;;5010964;28;20058;-60
2021/04/09 06:50:55;;;;;;;16.60;8.67;;;;;;;;;;5009050;28;20034;-57
2021/04/09 06:53:20;;;;;;;20.67;9.37;;;;;;;;;;5011084;28;20034;-60
2021/04/09 06:55:48;;;;;;;20.00;9.07;;;;;;;;;;5011233;28;20057;-60
2021/04/09 06:58:14;;;;;;;19.20;7.93;;;;;;;;;;5012688;28;20087;-59
2021/04/09 07:00:40;;;;;;;20.15;10.18;;;;;;;;;;5013490;28;20137;-59
2021/04/09 07:03:09;;;;;;;17.70;8.73;;;;;;;;;;5014087;28;20439;-58
2021/04/09 07:05:36;;;;;;;17.30;7.57;;;;;;;;;;5014390;28;20446;-59
2021/04/09 07:08:01;;;;;;;13.23;7.47;;;;;;;;;;5013012;28;20042;-59
2021/04/09 07:10:26;;;;;;;16.77;7.80;;;;;;;;;;5014429;28;20370;-59
2021/04/09 07:13:11;;;;;;;15.13;7.30;;;;;;;;;;5014820;28;20040;-59
2021/04/09 07:15:40;;;;;;;17.50;7.55;;;;;;;;;;5029808;28;20038;-58
2021/04/09 07:18:07;;;;;;;17.48;7.95;;;;;;;;;;5013968;28;20044;-58
2021/04/09 07:20:33;;;;;;;17.33;7.95;;;;;;;;;;5013214;28;20072;-59
2021/04/09 07:23:00;;;;;;;13.95;7.40;;;;;;;;;;5013828;28;20070;-58
2021/04/09 07:25:29;;;;;;;16.63;8.00;;;;;;;;;;5014532;28;20030;-58
2021/04/09 07:28:13;;;;;;;14.88;7.63;;;;;;;;;;5013702;28;20546;-57
2021/04/09 07:30:53;;;;;;;17.67;7.90;;;;;;;;;;5014292;28;20029;-60
2021/04/09 07:33:19;;;;;;;15.55;6.78;;;;;;;;;;5013870;28;20474;-60
2021/04/09 07:35:49;;;;;;;14.43;7.55;;;;;;;;;;5014143;28;20157;-60
2021/04/09 07:38:40;;;;;;;14.55;6.97;;;;;;;;;;5013912;28;20053;-59
2021/04/09 07:41:10;;;;;;;16.10;7.97;;;;;;;;;;5011217;28;20053;-59
2021/04/09 07:43:37;;;;;;;16.60;7.38;;;;;;;;;;5013817;28;20030;-59
2021/04/09 07:46:05;;;;;;;16.95;7.78;;;;;;;;;;5013530;28;20041;-59
2021/04/09 07:48:31;;;;;;;15.30;8.13;;;;;;;;;;5013679;28;20040;-59
2021/04/09 07:50:58;;;;;;;15.02;7.00;;;;;;;;;;5014028;28;20072;-59
2021/04/09 07:53:29;;;;;;;14.98;6.88;;;;;;;;;;5030898;28;20450;-60
2021/04/09 07:56:06;;;;;;;16.50;7.40;;;;;;;;;;5016126;28;20037;-60
2021/04/09 07:58:32;;;;;;;16.08;8.02;;;;;;;;;;5013958;28;20026;-59
2021/04/09 08:00:58;;;;;;;15.90;7.40;;;;;;;;;;5013441;28;20050;-60
2021/04/09 08:03:30;;;;;;;11.88;6.68;;;;;;;;;;5013813;28;20379;-58
2021/04/09 08:06:05;;;;;;;16.23;7.25;;;;;;;;;;5033345;28;20042;-59
2021/04/09 08:08:31;;;;;;;16.27;8.13;;;;;;;;;;5032833;28;20030;-59
2021/04/09 08:11:15;;;;;;;17.73;8.50;;;;;;;;;;5033187;28;20030;-59
2021/04/09 08:13:41;;;;;;;17.77;7.47;;;;;;;;;;5033275;28;20108;-59
2021/04/09 08:16:23;;;;;;;14.73;7.50;;;;;;;;;;5031333;28;20477;-58
2021/04/09 08:18:55;;;;;;;15.18;7.40;;;;;;;;;;5033312;28;20090;-59
2021/04/09 08:21:20;;;;;;;16.20;7.57;;;;;;;;;;5031178;28;20090;-59
2021/04/09 08:23:46;;;;;;;17.70;7.53;;;;;;;;;;5031865;28;20481;-59
2021/04/09 08:26:11;;;;;;;15.50;7.60;;;;;;;;;;5032378;28;20535;-59
2021/04/09 08:28:36;;;;;;;16.80;8.00;;;;;;;;;;5031367;28;20428;-58
2021/04/09 08:31:02;;;;;;;18.70;7.17;;;;;;;;;;5032271;28;20060;-59
2021/04/09 08:33:28;;;;;;;17.30;8.13;;;;;;;;;;5031251;28;20060;-58
2021/04/09 08:35:53;;;;;;;17.30;7.53;;;;;;;;;;5031734;28;20034;-59
2021/04/09 08:38:19;;;;;;;16.77;7.53;;;;;;;;;;5032181;28;20492;-58
2021/04/09 08:40:44;;;;;;;11.87;7.40;;;;;;;;;;5044297;28;20060;-58
2021/04/09 08:43:10;;;;;;;15.63;7.23;;;;;;;;;;5012303;28;20042;-59
2021/04/09 08:45:35;;;;;;;18.63;7.77;;;;;;;;;;5011801;28;20125;-59
2021/04/09 08:48:01;;;;;;;17.20;7.20;;;;;;;;;;5013035;28;20041;-59
2021/04/09 08:50:26;;;;;;;18.23;7.73;;;;;;;;;;5012159;28;20041;-59
2021/04/09 08:52:52;;;;;;;16.00;7.50;;;;;;;;;;5012727;28;20455;-59
2021/04/09 08:55:18;;;;;;;14.52;7.25;;;;;;;;;;5043695;28;20033;-58
2021/04/09 08:57:49;;;;;;;13.52;7.10;;;;;;;;;;5012659;28;20037;-59
2021/04/09 09:00:18;;;;;;;19.42;7.72;;;;;;;;;;5012053;28;20046;-58
2021/04/09 09:02:46;;;;;;;16.90;7.78;;;;;;;;;;5012699;28;20045;-58
2021/04/09 09:05:24;;;;;;;11.40;6.70;;;;;;;;;;5010857;28;20408;-60
2021/04/09 09:07:49;;;;;;;17.25;7.03;;;;;;;;;;5012664;28;20033;-58
2021/04/09 09:10:30;;;;;;;14.63;6.33;;;;;;;;;;5012001;28;20526;-58
2021/04/09 09:13:01;;;;;;;13.43;6.90;;;;;;;;;;5012558;28;20026;-58
2021/04/09 09:15:47;;;;;;;16.30;6.40;;;;;;;;;;5012060;28;20087;-59
2021/04/09 09:18:21;;;;;;;13.03;5.90;;;;;;;;;;5004116;28;20267;-58
2021/04/09 09:21:11;;;;;;;13.20;6.30;;;;;;;;;;5043273;28;20298;-59
2021/04/09 09:23:50;;;;;;;14.80;7.47;;;;;;;;;;5012356;28;20271;-59
2021/04/09 09:26:21;;;;;;;11.60;6.23;;;;;;;;;;5011739;28;20275;-59
2021/04/09 09:28:48;;;;;;;13.80;6.60;;;;;;;;;;5012009;28;20280;-59
2021/04/09 09:31:13;;;;;;;;;;;;;;;;;;5043368;28;20278;-58
2021/04/09 09:33:38;;;;;;;11.07;5.97;;;;;;;;;;5011892;28;19905;-59
2021/04/09 09:36:05;;;;;;;16.70;6.70;;;;;;;;;;5012238;28;20026;-59
2021/04/09 09:38:50;;;;;;;19.43;8.57;;;;;;;;;;5042759;28;20026;-60
2021/04/09 09:41:51;;;;;;;11.23;6.27;;;;;;;;;;5011066;28;20398;-58
2021/04/09 09:44:28;;;;;;;13.13;6.13;;;;;;;;;;4953869;28;20741;-60
2021/04/09 09:46:55;;;;;;;14.57;6.10;;;;;;;;;;5006443;28;20283;-60
2021/04/09 09:49:21;;;;;;;15.83;8.53;;;;;;;;;;5011439;28;20259;-60
2021/04/09 09:51:46;;;;;;;16.08;8.35;;;;;;;;;;5011761;28;20270;-59
2021/04/09 09:54:25;;;;;;;9.85;4.90;;;;;;;;;;5011135;28;20029;-59
2021/04/09 09:56:50;;;;;;;17.20;7.37;;;;;;;;;;5011958;28;20032;-60
2021/04/09 09:59:20;;;;;;;15.03;6.13;;;;;;;;;;5011371;28;20259;-59
2021/04/09 10:01:50;;;;;;;10.23;4.63;;;;;;;;;;5043651;28;20133;-59
2021/04/09 10:04:15;;;;;;;11.00;4.60;;;;;;;;;;5026680;28;20279;-60
2021/04/09 10:06:50;;;;;;;14.20;4.47;;;;;;;;;;5021223;28;20271;-58
2021/04/09 10:09:22;;;;;;;7.43;4.10;;;;;;;;;;5022247;28;20026;-59
2021/04/09 10:11:47;;;;;;;9.27;4.10;;;;;;;;;;5020588;28;20622;-59
2021/04/09 10:14:12;;;;;;;11.63;3.83;;;;;;;;;;5020247;28;20266;-56
2021/04/09 10:16:38;;;;;;;10.97;4.00;;;;;;;;;;5012204;28;20482;-59
2021/04/09 10:19:07;;;;;;;14.87;6.83;;;;;;;;;;5012466;28;20100;-60
2021/04/09 10:21:34;;;;;;;16.93;6.03;;;;;;;;;;5010215;28;20320;-59
2021/04/09 10:24:04;;;;;;;14.93;5.80;;;;;;;;;;5012056;28;20434;-60
2021/04/09 10:26:30;;;;;;;13.10;5.70;;;;;;;;;;5011331;28;20263;-59
2021/04/09 10:28:55;;;;;;;8.68;3.65;;;;;;;;;;5012048;28;20596;-59
2021/04/09 10:31:21;;;;;;;8.83;3.73;;;;;;;;;;5011150;28;20394;-59
2021/04/09 10:33:48;;;;;;;7.57;3.43;;;;;;;;;;5011599;28;20038;-59
2021/04/09 10:36:16;;;;;;;6.80;3.87;;;;;;;;;;4992069;28;20260;-59
2021/04/09 10:38:42;;;;;;;5.00;3.27;;;;;;;;;;4992307;28;20476;-58
2021/04/09 10:41:07;;;;;;;7.53;4.00;;;;;;;;;;4991050;28;20146;-58
2021/04/09 10:43:35;;;;;;;8.93;3.63;;;;;;;;;;4991708;28;20042;-58
2021/04/09 10:46:05;;;;;;;7.67;3.30;;;;;;;;;;4992019;28;20259;-58
2021/04/09 10:48:30;;;;;;;7.83;3.80;;;;;;;;;;4990410;28;20036;-59
2021/04/09 10:50:56;;;;;;;9.13;2.90;;;;;;;;;;4992198;28;20390;-60
2021/04/09 10:53:21;;;;;;;8.20;3.57;;;;;;;;;;4991370;28;20057;-59
2021/04/09 10:55:46;;;;;;;6.70;3.10;;;;;;;;;;4992356;28;20307;-59
2021/04/09 10:58:15;;;;;;;5.20;2.83;;;;;;;;;;4992285;28;20030;-59
2021/04/09 11:00:41;;;;;;;8.07;3.07;;;;;;;;;;4991339;28;20125;-58
2021/04/09 11:03:06;;;;;;;7.32;2.22;;;;;;;;;;5007128;28;20114;-58
2021/04/09 11:05:32;;;;;;;8.35;2.97;;;;;;;;;;4991758;28;20051;-58
2021/04/09 11:07:58;;;;;;;6.13;2.00;;;;;;;;;;4992314;28;20074;-59
2021/04/09 11:10:30;;;;;;;6.63;2.43;;;;;;;;;;4991336;28;20039;-59
2021/04/09 11:12:55;;;;;;;7.13;2.10;;;;;;;;;;5007020;28;20311;-59
2021/04/09 11:15:21;;;;;;;5.53;2.20;;;;;;;;;;5006571;28;20022;-58
2021/04/09 11:17:53;;;;;;;7.07;2.20;;;;;;;;;;4992209;28;20331;-58
2021/04/09 11:20:23;;;;;;;5.13;2.43;;;;;;;;;;4991547;28;20291;-58
2021/04/09 11:23:06;;;;;;;8.30;3.60;;;;;;;;;;4990686;28;20084;-59
2021/04/09 11:25:39;;;;;;;12.77;5.07;;;;;;;;;;4991234;28;20112;-59
2021/04/09 11:28:05;;;;;;;11.00;5.33;;;;;;;;;;4990491;28;20463;-59
2021/04/09 11:30:31;;;;;;;6.57;3.47;;;;;;;;;;4991287;28;20026;-58
2021/04/09 11:32:57;;;;;;;;;;;;;;;;;;4990784;28;20082;-58
2021/04/09 11:35:23;;;;;;;5.33;2.10;;;;;;;;;;4990716;28;20325;-58
2021/04/09 11:37:49;;;;;;;;;;;;;;;;;;4991063;28;20038;-58
2021/04/09 11:40:15;;;;;;;5.43;3.07;;;;;;;;;;4991908;28;20343;-60
2021/04/09 11:42:41;;;;;;;5.37;2.40;;;;;;;;;;4991052;28;20364;-59
2021/04/09 11:45:07;;;;;;;10.43;3.30;;;;;;;;;;4994252;28;20487;-59
2021/04/09 11:47:32;;;;;;;;;;;;;;;;;;4995459;28;20039;-59
2021/04/09 11:50:03;;;;;;;4.47;2.30;;;;;;;;;;4999599;28;19917;-60
2021/04/09 11:52:29;;;;;;;5.03;3.13;;;;;;;;;;4998146;28;20027;-59
2021/04/09 11:54:54;;;;;;;6.60;2.50;;;;;;;;;;5001038;28;20109;-60
2021/04/09 11:57:24;;;;;;;4.53;2.17;;;;;;;;;;5011319;28;20403;-59
2021/04/09 11:59:50;;;;;;;6.83;3.07;;;;;;;;;;4993967;28;20042;-59
2021/04/09 12:02:20;;;;;;;6.28;2.80;;;;;;;;;;4994788;28;20376;-60
2021/04/09 12:04:46;;;;;;;6.13;2.40;;;;;;;;;;4995991;28;20133;-59
2021/04/09 12:07:13;;;;;;;6.13;2.83;;;;;;;;;;4995064;28;20034;-59
2021/04/09 12:09:39;;;;;;;8.53;4.57;;;;;;;;;;4995415;28;20018;-59
2021/04/09 12:12:05;;;;;;;4.05;2.78;;;;;;;;;;4995181;28;20510;-59
2021/04/09 12:14:30;;;;;;;;;;;;;;;;;;4995480;28;20099;-59
2021/04/09 12:16:55;;;;;;;6.10;2.60;;;;;;;;;;4995295;28;19913;-59
2021/04/09 12:19:21;;;;;;;12.27;4.63;;;;;;;;;;4995515;28;20077;-59
2021/04/09 12:21:46;;;;;;;6.00;2.83;;;;;;;;;;4996745;28;20034;-59
2021/04/09 12:24:11;;;;;;;5.82;3.20;;;;;;;;;;5016494;28;20410;-59
2021/04/09 12:26:37;;;;;;;;;;;;;;;;;;5014563;28;20482;-58
2021/04/09 12:29:02;;;;;;;5.37;2.23;;;;;;;;;;5014229;28;20361;-57
2021/04/09 12:31:27;;;;;;;4.05;2.47;;;;;;;;;;5012146;28;20042;-57
2021/04/09 12:33:53;;;;;;;5.70;2.65;;;;;;;;;;5014380;28;20049;-59
2021/04/09 12:36:18;;;;;;;;;;;;;;;;;;5029487;28;20058;-58
2021/04/09 12:38:43;;;;;;;5.73;2.47;;;;;;;;;;5012064;28;20291;-59
2021/04/09 12:41:09;;;;;;;4.05;2.30;;;;;;;;;;5014165;28;20042;-59
2021/04/09 12:43:34;;;;;;;;;;;;;;;;;;5013977;28;20518;-58
2021/04/09 12:45:59;;;;;;;5.43;2.50;;;;;;;;;;5013421;28;19909;-59
2021/04/09 12:48:25;;;;;;;5.70;3.00;;;;;;;;;;5014189;28;20072;-58
2021/04/09 12:50:50;;;;;;;4.97;2.25;;;;;;;;;;5012489;28;20465;-59
2021/04/09 12:53:15;;;;;;;;;;;;;;;;;;5017303;28;20068;-59
2021/04/09 12:55:41;;;;;;;6.50;2.83;;;;;;;;;;5014083;28;19910;-58
2021/04/09 12:58:06;;;;;;;;;;;;;;;;;;5014695;28;20034;-58
2021/04/09 13:00:31;;;;;;;6.63;2.40;;;;;;;;;;5013506;28;19917;-59
2021/04/09 13:03:00;;;;;;;;;;;;;;;;;;5012229;28;20044;-59
2021/04/09 13:05:27;;;;;;;7.80;2.30;;;;;;;;;;5012033;28;19943;-59
2021/04/09 13:07:52;;;;;;;7.27;3.40;;;;;;;;;;5011473;28;20057;-58
2021/04/09 13:10:18;;;;;;;9.90;4.57;;;;;;;;;;5013712;28;20065;-58
2021/04/09 13:12:43;;;;;;;11.65;4.53;;;;;;;;;;5012822;28;20026;-58
2021/04/09 13:15:09;;;;;;;6.80;3.22;;;;;;;;;;5013729;28;20037;-58
2021/04/09 13:17:34;;;;;;;10.10;3.10;;;;;;;;;;5012664;28;20065;-57
2021/04/09 13:20:00;;;;;;;6.20;2.70;;;;;;;;;;5013612;28;20153;-58
2021/04/09 13:22:25;;;;;;;4.05;2.67;;;;;;;;;;5011820;28;20310;-58
2021/04/09 13:24:51;;;;;;;7.80;2.92;;;;;;;;;;5012881;28;20061;-58
2021/04/09 13:27:16;;;;;;;10.60;3.88;;;;;;;;;;5013409;28;20076;-58
2021/04/09 13:29:42;;;;;;;4.30;1.70;;;;;;;;;;5012716;28;20103;-58
2021/04/09 13:32:08;;;;;;;8.95;1.70;;;;;;;;;;5011731;28;20038;-58
2021/04/09 13:34:33;;;;;;;8.82;1.73;;;;;;;;;;5011287;28;20113;-57
2021/04/09 13:36:58;;;;;;;3.72;1.90;;;;;;;;;;5011963;28;20042;-58
2021/04/09 13:39:24;;;;;;;5.80;1.83;;;;;;;;;;5012030;28;20386;-59
2021/04/09 13:41:50;;;;;;;2.70;1.53;;;;;;;;;;5012616;28;20419;-57
2021/04/09 13:44:15;;;;;;;4.50;1.55;;;;;;;;;;5013169;28;20117;-58
2021/04/09 13:46:41;;;;;;;3.10;1.60;;;;;;;;;;5010816;28;20026;-58
2021/04/09 13:49:06;;;;;;;4.13;2.13;;;;;;;;;;5013168;28;20034;-60
2021/04/09 13:51:31;;;;;;;4.57;2.13;;;;;;;;;;5013300;28;20034;-58
2021/04/09 13:53:57;;;;;;;5.22;1.55;;;;;;;;;;5012648;28;20459;-58
2021/04/09 13:56:22;;;;;;;7.00;2.30;;;;;;;;;;5013001;28;20030;-59
2021/04/09 13:58:49;;;;;;;5.85;1.98;;;;;;;;;;5012664;28;20088;-57
2021/04/09 14:01:14;;;;;;;4.03;2.00;;;;;;;;;;5011933;28;20058;-57
2021/04/09 14:03:41;;;;;;;5.47;2.13;;;;;;;;;;5015547;28;20072;-57
2021/04/09 14:06:06;;;;;;;5.90;2.25;;;;;;;;;;5003498;28;20073;-57
2021/04/09 14:08:31;;;;;;;9.60;3.22;;;;;;;;;;4991993;28;20435;-58
2021/04/09 14:10:57;;;;;;;6.18;3.40;;;;;;;;;;5007758;28;20045;-57
2021/04/09 14:13:22;;;;;;;3.72;1.98;;;;;;;;;;4993189;28;20487;-58
2021/04/09 14:15:48;;;;;;;4.32;2.25;;;;;;;;;;4974508;28;20112;-57
2021/04/09 14:18:13;;;;;;;3.70;2.00;;;;;;;;;;4995926;28;20093;-60
2021/04/09 14:20:38;;;;;;;;;;;;;;;;;;4996685;28;20034;-58
2021/04/09 14:23:04;;;;;;;5.10;1.70;;;;;;;;;;4993559;28;20307;-59
2021/04/09 14:25:29;;;;;;;;;;;;;;;;;;5008322;28;20113;-59
2021/04/09 14:27:54;;;;;;;8.17;2.97;;;;;;;;;;4992455;28;19925;-58
2021/04/09 14:30:20;;;;;;;;;;;;;;;;;;4993061;28;20173;-59
2021/04/09 14:32:46;;;;;;;7.63;2.57;;;;;;;;;;4992283;28;19917;-59